createdAt,value
2022-09-13T00:00:53.966Z,3.03
2022-09-13T00:01:55.488Z,3.10
2022-09-13T00:02:57.512Z,3.27
2022-09-13T00:03:59.002Z,2.70
2022-09-13T00:05:00.582Z,2.97
2022-09-13T00:06:13.402Z,2.83
2022-09-13T00:07:14.847Z,3.00
2022-09-13T00:08:17.890Z,2.30
2022-09-13T00:09:19.404Z,3.20
2022-09-13T00:10:21.565Z,2.73
2022-09-13T00:11:26.142Z,3.10
2022-09-13T00:12:27.891Z,3.27
2022-09-13T00:13:29.503Z,3.17
2022-09-13T00:14:31.070Z,3.00
2022-09-13T00:15:32.958Z,3.17
2022-09-13T00:16:34.597Z,2.60
2022-09-13T00:17:36.155Z,3.30
2022-09-13T00:18:37.700Z,3.10
2022-09-13T00:19:39.248Z,2.87
2022-09-13T00:20:41.369Z,3.60
2022-09-13T00:21:42.876Z,3.37
2022-09-13T00:22:44.332Z,2.93
2022-09-13T00:23:48.159Z,3.07
2022-09-13T00:24:49.619Z,3.20
2022-09-13T00:25:51.132Z,3.23
2022-09-13T00:26:52.666Z,3.00
2022-09-13T00:27:54.107Z,3.07
2022-09-13T00:28:59.320Z,3.30
2022-09-13T00:30:00.823Z,2.83
2022-09-13T00:31:07.130Z,2.70
2022-09-13T00:32:08.653Z,2.73
2022-09-13T00:33:10.185Z,3.10
2022-09-13T00:34:11.704Z,3.20
2022-09-13T00:35:13.207Z,2.60
2022-09-13T00:36:18.060Z,3.57
2022-09-13T00:37:19.735Z,2.77
2022-09-13T00:38:54.651Z,3.40
2022-09-13T00:40:04.825Z,3.13
2022-09-13T00:41:08.834Z,2.70
2022-09-13T00:42:15.040Z,3.37
2022-09-13T00:43:19.690Z,2.90
2022-09-13T00:45:03.394Z,2.73
2022-09-13T00:46:05.017Z,3.03
2022-09-13T00:47:06.523Z,3.20
2022-09-13T00:48:13.028Z,2.63
2022-09-13T00:49:21.299Z,2.97
2022-09-13T00:50:22.769Z,2.87
2022-09-13T00:51:25.238Z,3.20
2022-09-13T00:52:29.190Z,2.53
2022-09-13T00:53:38.384Z,2.80
2022-09-13T00:54:45.476Z,2.80
2022-09-13T00:55:52.006Z,2.90
2022-09-13T00:56:58.166Z,3.13
2022-09-13T00:58:05.050Z,2.80
2022-09-13T00:59:30.090Z,3.10
2022-09-13T01:00:32.020Z,2.70
2022-09-13T01:01:40.123Z,2.97
2022-09-13T01:03:13.316Z,3.00
2022-09-13T01:04:20.488Z,3.00
2022-09-13T01:05:26.066Z,2.63
2022-09-13T01:06:30.863Z,3.30
2022-09-13T01:07:33.226Z,2.90
2022-09-13T01:08:36.848Z,2.57
2022-09-13T01:09:43.048Z,3.10
2022-09-13T01:10:45.024Z,2.90
2022-09-13T01:11:47.235Z,3.00
2022-09-13T01:13:14.746Z,2.83
2022-09-13T01:14:20.339Z,3.17
2022-09-13T01:15:22.122Z,3.03
2022-09-13T01:16:24.038Z,2.20
2022-09-13T01:17:28.198Z,2.73
2022-09-13T01:18:29.771Z,2.67
2022-09-13T01:19:31.805Z,3.00
2022-09-13T01:20:55.013Z,2.97
2022-09-13T01:22:02.783Z,2.73
2022-09-13T01:23:36.555Z,2.33
2022-09-13T01:24:52.069Z,3.30
2022-09-13T01:26:03.954Z,2.83
2022-09-13T01:27:57.977Z,3.20
2022-09-13T01:29:18.824Z,2.97
2022-09-13T01:30:22.579Z,2.80
2022-09-13T01:31:42.302Z,2.50
2022-09-13T01:33:05.784Z,2.77
2022-09-13T01:34:17.917Z,3.10
2022-09-13T01:35:38.804Z,3.00
2022-09-13T01:36:59.183Z,2.53
2022-09-13T01:38:16.604Z,2.63
2022-09-13T01:39:28.307Z,2.77
2022-09-13T01:40:51.843Z,2.60
2022-09-13T01:41:59.365Z,2.77
2022-09-13T01:43:25.265Z,3.30
2022-09-13T01:44:32.612Z,2.63
2022-09-13T01:45:48.369Z,2.57
2022-09-13T01:47:11.690Z,3.00
2022-09-13T01:48:22.969Z,3.07
2022-09-13T01:49:33.257Z,3.00
2022-09-13T01:50:42.673Z,2.80
2022-09-13T01:51:56.226Z,2.63
2022-09-13T01:53:33.364Z,3.23
2022-09-13T01:54:38.419Z,2.73
2022-09-13T01:55:42.883Z,3.00
2022-09-13T01:57:12.191Z,3.20
2022-09-13T01:58:35.294Z,3.20
2022-09-13T01:59:51.388Z,2.97
2022-09-13T02:01:16.595Z,3.00
2022-09-13T02:02:20.962Z,2.43
2022-09-13T02:03:36.826Z,2.60
2022-09-13T02:04:43.374Z,3.10
2022-09-13T02:05:54.586Z,3.00
2022-09-13T02:07:08.576Z,3.20
2022-09-13T02:08:17.230Z,3.00
2022-09-13T02:09:24.543Z,3.00
2022-09-13T02:10:38.815Z,2.80
2022-09-13T02:11:44.213Z,3.30
2022-09-13T02:12:48.319Z,3.10
2022-09-13T02:13:52.095Z,3.40
2022-09-13T02:15:07.388Z,2.50
2022-09-13T02:16:15.697Z,3.10
2022-09-13T02:17:23.554Z,3.50
2022-09-13T02:18:33.337Z,3.47
2022-09-13T02:19:43.313Z,3.07
2022-09-13T02:20:49.453Z,3.30
2022-09-13T02:21:58.744Z,3.23
2022-09-13T02:23:05.359Z,3.40
2022-09-13T02:24:11.685Z,3.30
2022-09-13T02:25:17.629Z,3.70
2022-09-13T02:26:22.679Z,3.53
2022-09-13T02:27:32.217Z,3.43
2022-09-13T02:28:42.665Z,2.90
2022-09-13T02:29:47.359Z,3.17
2022-09-13T02:30:52.394Z,3.07
2022-09-13T02:32:35.205Z,3.50
2022-09-13T02:33:44.714Z,3.53
2022-09-13T02:34:52.463Z,3.30
2022-09-13T02:36:02.201Z,3.70
2022-09-13T02:37:06.941Z,3.53
2022-09-13T02:38:12.995Z,3.20
2022-09-13T02:39:17.737Z,3.43
2022-09-13T02:40:25.330Z,3.20
2022-09-13T02:41:32.762Z,3.60
2022-09-13T02:42:48.958Z,3.07
2022-09-13T02:43:58.174Z,2.87
2022-09-13T02:45:00.762Z,3.30
2022-09-13T02:46:25.640Z,3.70
2022-09-13T02:47:33.565Z,3.10
2022-09-13T02:48:56.561Z,3.67
2022-09-13T02:50:35.937Z,3.53
2022-09-13T02:52:01.105Z,3.10
2022-09-13T02:53:30.857Z,3.10
2022-09-13T02:54:58.616Z,2.83
2022-09-13T02:56:29.296Z,3.10
2022-09-13T02:57:42.287Z,3.07
2022-09-13T02:58:52.552Z,3.50
2022-09-13T02:59:54.044Z,3.23
2022-09-13T03:00:55.796Z,3.67
2022-09-13T03:02:03.560Z,3.23
2022-09-13T03:03:08.354Z,3.43
2022-09-13T03:04:09.884Z,3.30
2022-09-13T03:05:11.505Z,3.00
2022-09-13T03:06:13.265Z,3.20
2022-09-13T03:07:15.310Z,3.30
2022-09-13T03:08:18.433Z,3.33
2022-09-13T03:09:20.968Z,3.03
2022-09-13T03:10:23.183Z,3.30
2022-09-13T03:11:30.902Z,2.83
2022-09-13T03:12:53.820Z,3.93
2022-09-13T03:14:27.824Z,3.10
2022-09-13T03:15:48.286Z,3.43
2022-09-13T03:17:13.815Z,2.93
2022-09-13T03:19:12.994Z,3.47
2022-09-13T03:20:29.962Z,2.83
2022-09-13T03:21:43.560Z,3.60
2022-09-13T03:23:12.638Z,3.50
2022-09-13T03:24:29.014Z,3.20
2022-09-13T03:25:53.909Z,3.57
2022-09-13T03:27:23.788Z,3.90
2022-09-13T03:28:53.495Z,3.13
2022-09-13T03:30:16.127Z,3.60
2022-09-13T03:31:56.255Z,3.23
2022-09-13T03:33:07.167Z,3.70
2022-09-13T03:34:11.918Z,3.47
2022-09-13T03:35:54.235Z,3.43
2022-09-13T03:37:01.035Z,3.43
2022-09-13T03:38:10.303Z,2.90
2022-09-13T03:39:22.675Z,2.90
2022-09-13T03:40:33.148Z,3.50
2022-09-13T03:41:40.715Z,3.00
2022-09-13T03:42:48.521Z,2.80
2022-09-13T03:43:55.846Z,3.20
2022-09-13T03:44:59.302Z,3.27
2022-09-13T03:46:06.117Z,2.70
2022-09-13T03:47:08.407Z,2.97
2022-09-13T03:48:14.291Z,2.77
2022-09-13T03:49:18.175Z,3.10
2022-09-13T03:50:23.002Z,2.77
2022-09-13T03:51:25.169Z,3.40
2022-09-13T03:52:27.303Z,3.53
2022-09-13T03:53:32.073Z,3.97
2022-09-13T03:54:37.784Z,3.23
2022-09-13T03:55:42.433Z,3.00
2022-09-13T03:56:44.098Z,2.97
2022-09-13T03:57:47.077Z,3.10
2022-09-13T03:58:48.918Z,3.50
2022-09-13T03:59:53.778Z,3.30
2022-09-13T04:00:55.601Z,3.60
2022-09-13T04:01:57.162Z,3.13
2022-09-13T04:02:58.664Z,3.23
2022-09-13T04:04:00.542Z,3.47
2022-09-13T04:05:02.010Z,3.60
2022-09-13T04:06:04.099Z,3.27
2022-09-13T04:07:05.640Z,3.47
2022-09-13T04:08:08.237Z,2.97
2022-09-13T04:09:09.893Z,2.90
2022-09-13T04:10:13.683Z,2.67
2022-09-13T04:11:15.643Z,3.10
2022-09-13T04:12:18.860Z,2.90
2022-09-13T04:13:22.462Z,3.27
2022-09-13T04:14:26.313Z,2.90
2022-09-13T04:15:28.917Z,3.33
2022-09-13T04:16:30.525Z,2.57
2022-09-13T04:17:32.079Z,2.97
2022-09-13T04:18:34.584Z,3.07
2022-09-13T04:19:36.261Z,2.67
2022-09-13T04:20:37.796Z,2.40
2022-09-13T04:21:39.417Z,3.23
2022-09-13T04:22:40.885Z,2.50
2022-09-13T04:23:42.432Z,3.40
2022-09-13T04:24:44.380Z,2.50
2022-09-13T04:25:46.254Z,2.70
2022-09-13T04:26:51.292Z,2.57
2022-09-13T04:27:57.085Z,2.67
2022-09-13T04:28:58.634Z,2.43
2022-09-13T04:30:00.136Z,2.60
2022-09-13T04:31:01.579Z,2.83
2022-09-13T04:32:03.214Z,2.70
2022-09-13T04:33:04.822Z,2.83
2022-09-13T04:34:06.974Z,3.03
2022-09-13T04:35:09.237Z,2.70
2022-09-13T04:36:10.688Z,2.97
2022-09-13T04:37:12.210Z,2.53
2022-09-13T04:38:13.797Z,2.63
2022-09-13T04:39:15.397Z,2.57
2022-09-13T04:40:17.352Z,3.60
2022-09-13T04:41:19.060Z,3.07
2022-09-13T04:42:20.534Z,2.43
2022-09-13T04:43:22.777Z,3.57
2022-09-13T04:44:24.440Z,3.47
2022-09-13T04:45:26.736Z,3.17
2022-09-13T04:46:28.929Z,3.40
2022-09-13T04:47:30.897Z,3.53
2022-09-13T04:48:32.423Z,4.07
2022-09-13T04:49:34.013Z,3.63
2022-09-13T04:50:35.703Z,3.57
2022-09-13T04:51:37.346Z,3.57
2022-09-13T04:52:38.899Z,3.50
2022-09-13T04:53:40.417Z,3.80
2022-09-13T04:54:41.854Z,3.33
2022-09-13T04:55:43.384Z,3.07
2022-09-13T04:56:45.665Z,3.70
2022-09-13T04:57:47.306Z,3.57
2022-09-13T04:58:50.915Z,3.77
2022-09-13T04:59:52.426Z,3.60
2022-09-13T05:00:56.758Z,4.03
2022-09-13T05:01:58.559Z,3.87
2022-09-13T05:03:00.231Z,4.33
2022-09-13T05:04:01.965Z,3.53
2022-09-13T05:05:04.032Z,4.10
2022-09-13T05:06:08.660Z,4.00
2022-09-13T05:07:10.352Z,3.73
2022-09-13T05:08:11.859Z,4.00
2022-09-13T05:09:14.790Z,3.57
2022-09-13T05:10:19.478Z,3.40
2022-09-13T05:11:26.531Z,3.87
2022-09-13T05:12:28.008Z,4.43
2022-09-13T05:13:30.099Z,3.70
2022-09-13T05:14:31.610Z,3.70
2022-09-13T05:15:33.127Z,3.50
2022-09-13T05:16:34.767Z,4.10
2022-09-13T05:17:36.500Z,4.17
2022-09-13T05:18:41.965Z,3.70
2022-09-13T05:19:46.171Z,3.30
2022-09-13T05:20:47.733Z,3.60
2022-09-13T05:21:50.481Z,4.13
2022-09-13T05:22:52.328Z,3.57
2022-09-13T05:23:55.280Z,3.43
2022-09-13T05:24:56.782Z,4.10
2022-09-13T05:25:59.953Z,3.47
2022-09-13T05:27:01.455Z,3.37
2022-09-13T05:28:02.941Z,3.40
2022-09-13T05:29:05.106Z,3.63
2022-09-13T05:30:07.196Z,3.73
2022-09-13T05:31:22.821Z,2.93
2022-09-13T05:32:24.299Z,3.30
2022-09-13T05:33:28.267Z,2.80
2022-09-13T05:34:29.800Z,3.77
2022-09-13T05:35:31.391Z,3.37
2022-09-13T05:36:33.549Z,3.27
2022-09-13T05:37:35.075Z,3.73
2022-09-13T05:38:36.770Z,3.50
2022-09-13T05:39:54.322Z,3.57
2022-09-13T05:41:05.091Z,3.50
2022-09-13T05:42:06.653Z,4.00
2022-09-13T05:43:08.139Z,3.50
2022-09-13T05:44:13.150Z,3.40
2022-09-13T05:45:15.541Z,3.60
2022-09-13T05:46:19.819Z,3.57
2022-09-13T05:47:21.611Z,3.17
2022-09-13T05:48:23.261Z,3.83
2022-09-13T05:49:24.769Z,3.40
2022-09-13T05:50:54.290Z,3.73
2022-09-13T05:51:47.734Z,3.70
2022-09-13T05:52:56.337Z,3.90
2022-09-13T05:53:58.197Z,3.70
2022-09-13T05:54:59.698Z,4.50
2022-09-13T05:56:01.868Z,4.40
2022-09-13T05:57:03.793Z,3.80
2022-09-13T05:58:05.267Z,4.50
2022-09-13T05:59:07.220Z,3.37
2022-09-13T06:00:09.822Z,4.17
2022-09-13T06:01:12.818Z,4.37
2022-09-13T06:02:14.383Z,3.63
2022-09-13T06:03:15.928Z,3.70
2022-09-13T06:04:17.455Z,3.43
2022-09-13T06:05:18.921Z,3.03
2022-09-13T06:06:21.655Z,4.10
2022-09-13T06:07:23.101Z,3.30
2022-09-13T06:08:26.391Z,3.53
2022-09-13T06:09:27.899Z,3.43
2022-09-13T06:10:29.365Z,4.03
2022-09-13T06:11:31.935Z,3.60
2022-09-13T06:12:33.410Z,3.60
2022-09-13T06:13:35.020Z,3.17
2022-09-13T06:14:36.553Z,3.23
2022-09-13T06:15:42.635Z,3.20
2022-09-13T06:16:44.746Z,2.73
2022-09-13T06:17:46.389Z,3.33
2022-09-13T06:18:48.070Z,3.40
2022-09-13T06:19:49.639Z,3.07
2022-09-13T06:20:51.654Z,3.13
2022-09-13T06:21:53.238Z,3.13
2022-09-13T06:22:54.837Z,2.90
2022-09-13T06:23:56.950Z,2.73
2022-09-13T06:25:01.982Z,2.10
2022-09-13T06:26:08.843Z,2.53
2022-09-13T06:27:10.547Z,2.40
2022-09-13T06:28:12.278Z,2.77
2022-09-13T06:29:14.760Z,2.30
2022-09-13T06:30:16.350Z,1.97
2022-09-13T06:31:20.114Z,2.27
2022-09-13T06:32:21.864Z,2.17
2022-09-13T06:33:23.348Z,2.57
2022-09-13T06:34:29.200Z,2.30
2022-09-13T06:35:32.656Z,2.43
2022-09-13T06:36:34.136Z,2.30
2022-09-13T06:37:35.657Z,1.87
2022-09-13T06:38:39.054Z,1.90
2022-09-13T06:39:41.357Z,1.70
2022-09-13T06:40:42.967Z,2.20
2022-09-13T06:41:44.477Z,2.20
2022-09-13T06:42:46.127Z,2.33
2022-09-13T06:43:52.089Z,2.10
2022-09-13T06:44:53.632Z,2.10
2022-09-13T06:45:59.697Z,2.43
2022-09-13T06:47:01.330Z,2.00
2022-09-13T06:48:03.284Z,2.03
2022-09-13T06:49:07.319Z,1.90
2022-09-13T06:50:09.523Z,2.07
2022-09-13T06:51:14.177Z,2.00
2022-09-13T06:52:15.702Z,2.23
2022-09-13T06:53:17.261Z,2.10
2022-09-13T06:54:18.875Z,1.63
2022-09-13T06:55:20.358Z,1.67
2022-09-13T06:56:33.010Z,2.10
2022-09-13T06:57:34.571Z,1.97
2022-09-13T06:58:37.045Z,1.87
2022-09-13T06:59:38.868Z,1.77
2022-09-13T07:00:40.464Z,1.70
2022-09-13T07:01:43.875Z,1.93
2022-09-13T07:02:50.812Z,1.70
2022-09-13T07:03:54.640Z,1.57
2022-09-13T07:04:56.315Z,1.60
2022-09-13T07:05:57.827Z,1.37
2022-09-13T07:07:00.502Z,1.60
2022-09-13T07:08:02.265Z,1.30
2022-09-13T07:09:06.993Z,1.70
2022-09-13T07:10:09.157Z,1.50
2022-09-13T07:11:13.560Z,1.60
2022-09-13T07:12:18.817Z,1.60
2022-09-13T07:13:22.147Z,1.47
2022-09-13T07:14:25.765Z,1.37
2022-09-13T07:15:27.361Z,1.77
2022-09-13T07:16:31.491Z,1.20
2022-09-13T07:17:33.166Z,1.20
2022-09-13T07:18:34.955Z,1.33
2022-09-13T07:19:36.696Z,1.40
2022-09-13T07:20:38.506Z,1.37
2022-09-13T07:21:40.237Z,1.40
2022-09-13T07:22:41.709Z,1.50
2022-09-13T07:23:43.270Z,1.60
2022-09-13T07:24:44.957Z,1.60
2022-09-13T07:25:54.972Z,1.50
2022-09-13T07:26:56.578Z,1.30
2022-09-13T07:27:58.092Z,1.17
2022-09-13T07:29:01.509Z,1.37
2022-09-13T07:30:03.365Z,1.43
2022-09-13T07:31:08.946Z,1.20
2022-09-13T07:32:10.462Z,1.40
2022-09-13T07:33:12.795Z,1.90
2022-09-13T07:34:17.651Z,2.13
2022-09-13T07:35:19.262Z,1.70
2022-09-13T07:36:21.626Z,1.77
2022-09-13T07:37:23.220Z,1.67
2022-09-13T07:38:24.797Z,1.63
2022-09-13T07:39:26.304Z,1.67
2022-09-13T07:40:27.824Z,1.90
2022-09-13T07:41:31.923Z,1.80
2022-09-13T07:42:33.658Z,1.43
2022-09-13T07:43:36.528Z,1.60
2022-09-13T07:44:39.826Z,1.50
2022-09-13T07:45:41.618Z,1.60
2022-09-13T07:46:45.878Z,1.23
2022-09-13T07:47:47.400Z,1.70
2022-09-13T07:48:50.198Z,1.50
2022-09-13T07:49:51.795Z,1.70
2022-09-13T07:51:05.470Z,1.60
2022-09-13T07:52:07.048Z,1.37
2022-09-13T07:53:08.588Z,1.40
2022-09-13T07:54:16.408Z,1.50
2022-09-13T07:55:17.883Z,2.07
2022-09-13T07:56:27.838Z,1.43
2022-09-13T07:57:29.370Z,1.67
2022-09-13T07:58:32.397Z,1.43
2022-09-13T07:59:34.046Z,1.53
2022-09-13T08:00:35.487Z,1.70
2022-09-13T08:01:40.212Z,1.40
2022-09-13T08:02:41.950Z,1.30
2022-09-13T08:03:44.354Z,1.70
2022-09-13T08:04:45.862Z,1.70
2022-09-13T08:05:47.318Z,1.40
2022-09-13T08:06:49.867Z,1.33
2022-09-13T08:07:51.299Z,1.60
2022-09-13T08:08:53.500Z,1.20
2022-09-13T08:09:56.759Z,1.50
2022-09-13T08:10:59.391Z,1.30
2022-09-13T08:12:00.940Z,1.60
2022-09-13T08:13:02.459Z,1.30
2022-09-13T08:14:06.164Z,1.00
2022-09-13T08:15:07.886Z,1.40
2022-09-13T08:16:09.414Z,1.43
2022-09-13T08:17:10.964Z,1.50
2022-09-13T08:18:12.545Z,1.63
2022-09-13T08:19:16.840Z,1.77
2022-09-13T08:20:18.561Z,1.50
2022-09-13T08:21:20.773Z,1.70
2022-09-13T08:22:22.331Z,1.47
2022-09-13T08:23:24.302Z,1.80
2022-09-13T08:24:26.654Z,1.00
2022-09-13T08:25:28.119Z,1.57
2022-09-13T08:26:31.870Z,1.13
2022-09-13T08:27:33.707Z,1.27
2022-09-13T08:28:36.778Z,1.70
2022-09-13T08:29:38.644Z,1.70
2022-09-13T08:30:42.210Z,1.47
2022-09-13T08:31:44.223Z,1.30
2022-09-13T08:32:45.711Z,1.50
2022-09-13T08:33:51.048Z,1.57
2022-09-13T08:34:53.422Z,1.60
2022-09-13T08:35:55.602Z,1.30
2022-09-13T08:36:57.129Z,1.50
2022-09-13T08:37:59.990Z,1.63
2022-09-13T08:39:01.659Z,1.53
2022-09-13T08:40:03.678Z,1.67
2022-09-13T08:41:23.364Z,1.70
2022-09-13T08:42:47.612Z,1.70
2022-09-13T08:43:54.508Z,2.50
2022-09-13T08:44:57.501Z,2.20
2022-09-13T08:46:27.048Z,2.17
2022-09-13T08:47:38.795Z,1.83
2022-09-13T08:48:44.311Z,1.77
2022-09-13T08:49:50.370Z,1.50
2022-09-13T08:50:54.465Z,1.90
2022-09-13T08:52:01.402Z,1.83
2022-09-13T08:53:12.213Z,2.00
2022-09-13T08:54:16.127Z,1.70
2022-09-13T08:55:45.208Z,2.10
2022-09-13T08:56:59.869Z,2.30
2022-09-13T08:58:14.873Z,2.10
2022-09-13T08:59:28.312Z,2.10
2022-09-13T09:00:41.104Z,1.83
2022-09-13T09:01:55.374Z,2.10
2022-09-13T09:03:10.955Z,2.57
2022-09-13T09:04:20.493Z,3.17
2022-09-13T09:05:25.264Z,2.03
2022-09-13T09:06:28.370Z,1.83
2022-09-13T09:07:37.790Z,1.60
2022-09-13T09:08:52.620Z,2.00
2022-09-13T09:09:59.898Z,2.10
2022-09-13T09:11:21.744Z,2.50
2022-09-13T09:12:44.582Z,2.43
2022-09-13T09:14:07.868Z,2.27
2022-09-13T09:15:13.001Z,2.20
2022-09-13T09:16:28.532Z,2.30
2022-09-13T09:17:42.476Z,2.27
2022-09-13T09:18:46.104Z,2.30
2022-09-13T09:19:57.052Z,1.90
2022-09-13T09:21:00.648Z,2.37
2022-09-13T09:22:05.534Z,1.83
2022-09-13T09:23:26.290Z,2.10
2022-09-13T09:24:30.586Z,2.20
2022-09-13T09:25:34.629Z,2.67
2022-09-13T09:26:36.132Z,2.00
2022-09-13T09:27:37.730Z,1.83
2022-09-13T09:28:39.256Z,2.30
2022-09-13T09:29:44.152Z,2.30
2022-09-13T09:31:00.639Z,2.50
2022-09-13T09:32:06.357Z,2.23
2022-09-13T09:33:29.297Z,2.30
2022-09-13T09:34:57.419Z,2.10
2022-09-13T09:36:03.813Z,2.10
2022-09-13T09:37:20.974Z,2.30
2022-09-13T09:38:43.185Z,2.37
2022-09-13T09:39:45.120Z,2.43
2022-09-13T09:40:46.847Z,2.93
2022-09-13T09:41:48.645Z,2.23
2022-09-13T09:42:50.466Z,2.43
2022-09-13T09:44:00.867Z,2.60
2022-09-13T09:45:33.385Z,2.57
2022-09-13T09:46:39.693Z,2.40
2022-09-13T09:47:50.641Z,2.80
2022-09-13T09:48:57.115Z,2.43
2022-09-13T09:50:14.215Z,2.27
2022-09-13T09:51:20.063Z,2.10
2022-09-13T09:52:28.450Z,2.10
2022-09-13T09:53:37.124Z,1.87
2022-09-13T09:54:41.544Z,2.00
2022-09-13T09:56:06.700Z,2.17
2022-09-13T09:57:08.826Z,1.97
2022-09-13T09:58:11.297Z,1.93
2022-09-13T09:59:27.040Z,2.47
2022-09-13T10:00:32.242Z,2.10
2022-09-13T10:01:38.440Z,2.30
2022-09-13T10:02:44.796Z,2.70
2022-09-13T10:04:04.623Z,2.50
2022-09-13T10:05:06.924Z,1.97
2022-09-13T10:06:12.999Z,1.97
2022-09-13T10:07:34.502Z,2.50
2022-09-13T10:08:38.589Z,2.17
2022-09-13T10:09:52.143Z,2.27
2022-09-13T10:10:55.479Z,2.30
2022-09-13T10:11:59.560Z,2.27
2022-09-13T10:13:01.974Z,1.93
2022-09-13T10:14:03.693Z,1.80
2022-09-13T10:15:15.482Z,2.37
2022-09-13T10:16:29.075Z,1.97
2022-09-13T10:17:30.594Z,2.50
2022-09-13T10:18:50.456Z,1.90
2022-09-13T10:20:17.121Z,2.10
2022-09-13T10:21:18.604Z,2.20
2022-09-13T10:22:20.954Z,2.27
2022-09-13T10:23:22.473Z,2.30
2022-09-13T10:24:24.002Z,2.20
2022-09-13T10:25:27.032Z,2.50
2022-09-13T10:26:33.886Z,2.47
2022-09-13T10:27:39.870Z,2.10
2022-09-13T10:28:57.172Z,2.60
2022-09-13T10:30:00.331Z,2.67
2022-09-13T10:31:09.021Z,2.50
2022-09-13T10:32:12.914Z,2.03
2022-09-13T10:33:24.184Z,2.00
2022-09-13T10:34:29.838Z,1.67
2022-09-13T10:35:32.503Z,2.00
2022-09-13T10:36:51.797Z,1.70
2022-09-13T10:37:54.606Z,1.93
2022-09-13T10:39:07.106Z,2.20
2022-09-13T10:40:19.150Z,1.87
2022-09-13T10:41:24.368Z,1.77
2022-09-13T10:42:28.074Z,1.70
2022-09-13T10:43:32.093Z,1.80
2022-09-13T10:44:45.411Z,2.27
2022-09-13T10:45:50.639Z,2.03
2022-09-13T10:46:53.131Z,1.70
2022-09-13T10:48:10.356Z,1.80
2022-09-13T10:49:37.689Z,2.00
2022-09-13T10:50:39.224Z,2.00
2022-09-13T10:51:41.494Z,2.33
2022-09-13T10:52:45.588Z,2.07
2022-09-13T10:53:47.449Z,1.80
2022-09-13T10:54:48.947Z,2.00
2022-09-13T10:55:55.195Z,1.77
2022-09-13T10:56:56.731Z,1.80
2022-09-13T10:58:01.255Z,1.83
2022-09-13T10:59:28.050Z,1.67
2022-09-13T11:00:35.343Z,2.03
2022-09-13T11:01:51.830Z,2.20
2022-09-13T11:03:14.724Z,2.67
2022-09-13T11:04:31.520Z,2.40
2022-09-13T11:05:40.850Z,1.70
2022-09-13T11:06:59.677Z,3.00
2022-09-13T11:08:21.659Z,2.40
2022-09-13T11:09:28.174Z,2.10
2022-09-13T11:10:42.501Z,2.00
2022-09-13T11:12:19.321Z,1.93
2022-09-13T11:13:44.865Z,2.10
2022-09-13T11:14:46.557Z,2.30
2022-09-13T11:16:11.117Z,3.00
2022-09-13T11:17:49.416Z,2.60
2022-09-13T11:19:16.028Z,2.00
2022-09-13T11:20:59.103Z,2.13
2022-09-13T11:22:09.273Z,1.90
2022-09-13T11:23:10.716Z,1.93
2022-09-13T11:24:12.179Z,1.77
2022-09-13T11:25:47.782Z,1.60
2022-09-13T11:27:04.684Z,1.60
2022-09-13T11:28:33.796Z,1.97
2022-09-13T11:30:09.442Z,1.70
2022-09-13T11:31:19.887Z,2.43
2022-09-13T11:32:49.580Z,2.17
2022-09-13T11:34:00.247Z,1.73
2022-09-13T11:35:23.253Z,1.50
2022-09-13T11:36:52.800Z,1.67
2022-09-13T11:37:56.961Z,1.83
2022-09-13T11:39:17.307Z,1.67
2022-09-13T11:40:31.044Z,1.73
2022-09-13T11:41:55.363Z,1.75
2022-09-13T11:43:24.087Z,1.48
2022-09-13T11:44:52.710Z,1.83
2022-09-13T11:46:11.600Z,1.50
2022-09-13T11:47:38.341Z,1.35
2022-09-13T11:49:03.847Z,1.50
2022-09-13T11:50:25.754Z,1.20
2022-09-13T11:51:40.841Z,2.05
2022-09-13T11:52:48.374Z,1.33
2022-09-13T11:53:53.052Z,1.67
2022-09-13T11:55:16.504Z,1.45
2022-09-13T11:56:38.414Z,1.50
2022-09-13T11:57:52.202Z,1.17
2022-09-13T11:59:00.964Z,1.05
2022-09-13T12:00:10.317Z,1.75
2022-09-13T12:01:17.330Z,1.13
2022-09-13T12:02:28.395Z,1.00
2022-09-13T12:03:57.203Z,0.85
2022-09-13T12:05:21.511Z,1.10
2022-09-13T12:06:35.443Z,1.50
2022-09-13T12:07:49.196Z,1.30
2022-09-13T12:09:02.752Z,1.05
2022-09-13T12:10:27.446Z,1.23
2022-09-13T12:11:34.529Z,1.30
2022-09-13T12:12:37.456Z,1.33
2022-09-13T12:13:49.304Z,1.30
2022-09-13T12:14:58.336Z,1.20
2022-09-13T12:16:08.697Z,1.20
2022-09-13T12:17:23.579Z,1.02
2022-09-13T12:18:29.666Z,1.50
2022-09-13T12:19:46.421Z,1.75
2022-09-13T12:20:54.187Z,1.17
2022-09-13T12:21:59.987Z,1.20
2022-09-13T12:23:08.873Z,1.02
2022-09-13T12:24:15.353Z,1.40
2022-09-13T12:25:28.601Z,1.33
2022-09-13T12:26:56.684Z,1.35
2022-09-13T12:28:15.838Z,2.03
2022-09-13T12:29:40.078Z,1.58
2022-09-13T12:30:54.208Z,1.10
2022-09-13T12:32:00.317Z,1.75
2022-09-13T12:33:05.968Z,1.23
2022-09-13T12:34:13.913Z,1.40
2022-09-13T12:35:42.528Z,1.10
2022-09-13T12:36:44.131Z,1.40
2022-09-13T12:37:54.943Z,1.35
2022-09-13T12:40:00.447Z,1.25
2022-09-13T12:41:04.672Z,1.27
2022-09-13T12:42:16.897Z,1.43
2022-09-13T12:43:24.087Z,1.33
2022-09-13T12:44:34.241Z,1.50
2022-09-13T12:45:54.711Z,1.57
2022-09-13T12:47:21.498Z,2.23
2022-09-13T12:48:25.790Z,1.10
2022-09-13T12:49:45.586Z,1.17
2022-09-13T12:51:05.974Z,1.47
2022-09-13T12:52:24.572Z,1.67
2022-09-13T12:53:36.517Z,1.20
2022-09-13T12:55:35.624Z,1.43
2022-09-13T12:56:54.885Z,1.40
2022-09-13T12:58:36.097Z,1.77
2022-09-13T12:59:59.588Z,1.60
2022-09-13T13:01:19.793Z,2.07
2022-09-13T13:02:40.771Z,1.50
2022-09-13T13:03:48.670Z,1.30
2022-09-13T13:04:55.305Z,1.50
2022-09-13T13:06:15.249Z,1.37
2022-09-13T13:07:21.131Z,1.23
2022-09-13T13:08:25.971Z,1.80
2022-09-13T13:09:40.888Z,1.40
2022-09-13T13:10:42.487Z,1.47
2022-09-13T13:11:47.728Z,1.23
2022-09-13T13:12:49.301Z,1.33
2022-09-13T13:13:57.997Z,1.47
2022-09-13T13:15:02.867Z,1.40
2022-09-13T13:16:25.090Z,1.70
2022-09-13T13:17:37.525Z,1.53
2022-09-13T13:18:48.904Z,1.20
2022-09-13T13:19:50.554Z,1.10
2022-09-13T13:20:54.760Z,1.10
2022-09-13T13:21:56.640Z,1.20
2022-09-13T13:23:23.425Z,1.33
2022-09-13T13:24:27.739Z,1.47
2022-09-13T13:25:40.297Z,1.40
2022-09-13T13:26:46.867Z,1.27
2022-09-13T13:27:51.566Z,1.27
2022-09-13T13:29:13.064Z,1.20
2022-09-13T13:30:42.528Z,0.90
2022-09-13T13:32:10.781Z,0.93
2022-09-13T13:33:16.750Z,1.30
2022-09-13T13:34:18.291Z,0.95
2022-09-13T13:35:30.312Z,1.02
2022-09-13T13:36:45.012Z,1.17
2022-09-13T13:37:47.064Z,1.05
2022-09-13T13:38:50.086Z,0.60
2022-09-13T13:40:26.199Z,0.80
2022-09-13T13:41:33.783Z,1.05
2022-09-13T13:42:38.404Z,1.00
2022-09-13T13:43:40.042Z,1.27
2022-09-13T13:44:41.986Z,1.27
2022-09-13T13:45:58.592Z,0.95
2022-09-13T13:47:09.505Z,1.52
2022-09-13T13:48:15.447Z,1.00
2022-09-13T13:49:32.343Z,0.88
2022-09-13T13:50:36.304Z,0.90
2022-09-13T13:51:40.766Z,1.05
2022-09-13T13:52:48.208Z,1.10
2022-09-13T13:53:57.026Z,1.10
2022-09-13T13:55:22.370Z,1.02
2022-09-13T13:56:47.006Z,1.13
2022-09-13T13:57:57.309Z,1.00
2022-09-13T13:59:31.749Z,0.88
2022-09-13T14:00:36.547Z,1.23
2022-09-13T14:01:44.103Z,1.10
2022-09-13T14:02:54.635Z,0.80
2022-09-13T14:04:27.128Z,1.08
2022-09-13T14:05:47.100Z,1.38
2022-09-13T14:07:06.266Z,1.27
2022-09-13T14:08:47.457Z,0.90
2022-09-13T14:10:02.102Z,0.95
2022-09-13T14:11:07.087Z,1.00
2022-09-13T14:12:25.812Z,1.40
2022-09-13T14:13:56.752Z,0.90
2022-09-13T14:15:15.560Z,1.00
2022-09-13T14:16:35.736Z,1.13
2022-09-13T14:17:50.737Z,0.93
2022-09-13T14:19:31.208Z,1.00
2022-09-13T14:20:32.691Z,1.10
2022-09-13T14:21:34.510Z,1.10
2022-09-13T14:22:36.112Z,0.90
2022-09-13T14:23:37.666Z,0.82
2022-09-13T14:24:43.169Z,1.00
2022-09-13T14:26:03.563Z,0.95
2022-09-13T14:27:23.437Z,1.08
2022-09-13T14:28:26.232Z,1.52
2022-09-13T14:29:29.063Z,1.05
2022-09-13T14:30:39.900Z,1.02
2022-09-13T14:31:47.196Z,0.95
2022-09-13T14:32:54.600Z,1.23
2022-09-13T14:33:56.152Z,0.93
2022-09-13T14:35:04.481Z,1.00
2022-09-13T14:36:19.281Z,0.98
2022-09-13T14:37:24.206Z,1.00
2022-09-13T14:38:30.943Z,0.80
2022-09-13T14:39:33.439Z,1.10
2022-09-13T14:40:35.051Z,1.38
2022-09-13T14:41:38.537Z,1.30
2022-09-13T14:42:46.054Z,1.63
2022-09-13T14:43:49.555Z,1.10
2022-09-13T14:44:51.243Z,1.73
2022-09-13T14:46:11.256Z,1.55
2022-09-13T14:47:18.605Z,1.42
2022-09-13T14:48:32.880Z,1.33
2022-09-13T14:49:47.301Z,1.27
2022-09-13T14:50:56.827Z,1.40
2022-09-13T14:52:04.287Z,1.38
2022-09-13T14:53:16.369Z,1.20
2022-09-13T14:54:51.166Z,1.00
2022-09-13T14:56:33.028Z,1.07
2022-09-13T14:57:38.971Z,1.20
2022-09-13T14:58:46.255Z,1.70
2022-09-13T14:59:52.629Z,1.20
2022-09-13T15:01:01.441Z,1.30
2022-09-13T15:02:14.998Z,1.10
2022-09-13T15:03:18.722Z,1.03
2022-09-13T15:04:23.611Z,1.20
2022-09-13T15:05:29.957Z,1.47
2022-09-13T15:06:38.387Z,1.37
2022-09-13T15:07:41.244Z,1.70
2022-09-13T15:08:46.615Z,1.40
2022-09-13T15:09:48.948Z,1.10
2022-09-13T15:10:50.975Z,1.40
2022-09-13T15:11:52.586Z,1.50
2022-09-13T15:13:06.521Z,1.80
2022-09-13T15:14:22.355Z,1.27
2022-09-13T15:15:35.256Z,1.80